Borda da Mata, Brazil
Current Conditions -  °F | °C
As of 5:00 PM on Saturday 25 Oct 2014 (Local Time) from SBSJ Reporting Station
Scattered Clouds Scattered Clouds  
Wind Chill: 84°   Ceiling: Unl
Heat Index: 84°   Visibility: 6mi
Dew Point: 59°   Wind: 14mph
Humidity: 42%   Direction: 270°W
Pressure: 29.94"   Gusts: NA
Location:  22.27°S, 46.17°W
Report Text: SBSJ 251900Z 27012KT 9999 SCT030 29/15 Q1014
Loading
Personal Weather Stations






























Interactive Weather Map
Tropical Storm Tracking
New forecast layout! Learn more

10-Day Weather Forecast

Advertisements
Track Severe Weather on mobile